sensor_id;sensor_type;location;lat;lon;timestamp;P1;durP1;ratioP1;P2;durP2;ratioP2
24557;SDS011;12726;49.148;8.582;2023-09-19T00:01:39;2.08;;;1.02;;
24557;SDS011;12726;49.148;8.582;2023-09-19T00:04:24;3.38;;;1.30;;
24557;SDS011;12726;49.148;8.582;2023-09-19T00:07:12;3.50;;;0.95;;
24557;SDS011;12726;49.148;8.582;2023-09-19T00:09:58;1.88;;;1.00;;
24557;SDS011;12726;49.148;8.582;2023-09-19T00:12:44;2.85;;;1.20;;
24557;SDS011;12726;49.148;8.582;2023-09-19T00:15:29;2.30;;;1.20;;
24557;SDS011;12726;49.148;8.582;2023-09-19T00:18:16;2.30;;;0.90;;
24557;SDS011;12726;49.148;8.582;2023-09-19T00:21:04;2.47;;;0.93;;
24557;SDS011;12726;49.148;8.582;2023-09-19T00:23:50;2.50;;;1.00;;
24557;SDS011;12726;49.148;8.582;2023-09-19T00:26:36;1.63;;;0.82;;
24557;SDS011;12726;49.148;8.582;2023-09-19T00:29:22;1.88;;;0.88;;
24557;SDS011;12726;49.148;8.582;2023-09-19T00:32:08;4.05;;;1.10;;
24557;SDS011;12726;49.148;8.582;2023-09-19T00:34:54;2.13;;;0.80;;
24557;SDS011;12726;49.148;8.582;2023-09-19T00:37:40;1.58;;;0.95;;
24557;SDS011;12726;49.148;8.582;2023-09-19T00:40:25;2.45;;;1.00;;
24557;SDS011;12726;49.148;8.582;2023-09-19T00:43:11;2.08;;;0.80;;
24557;SDS011;12726;49.148;8.582;2023-09-19T00:45:56;2.10;;;0.95;;
24557;SDS011;12726;49.148;8.582;2023-09-19T00:48:44;3.03;;;0.90;;
24557;SDS011;12726;49.148;8.582;2023-09-19T00:51:31;1.60;;;1.00;;
24557;SDS011;12726;49.148;8.582;2023-09-19T00:54:17;2.58;;;1.10;;
24557;SDS011;12726;49.148;8.582;2023-09-19T00:57:03;2.90;;;0.90;;
24557;SDS011;12726;49.148;8.582;2023-09-19T00:59:49;1.00;;;0.70;;
24557;SDS011;12726;49.148;8.582;2023-09-19T01:02:37;3.42;;;1.25;;
24557;SDS011;12726;49.148;8.582;2023-09-19T01:05:22;2.03;;;0.90;;
24557;SDS011;12726;49.148;8.582;2023-09-19T01:08:10;3.20;;;1.00;;
24557;SDS011;12726;49.148;8.582;2023-09-19T01:10:59;3.22;;;0.90;;
24557;SDS011;12726;49.148;8.582;2023-09-19T01:13:52;1.50;;;0.80;;
24557;SDS011;12726;49.148;8.582;2023-09-19T01:16:44;2.35;;;0.70;;
24557;SDS011;12726;49.148;8.582;2023-09-19T01:23:00;2.25;;;0.82;;
24557;SDS011;12726;49.148;8.582;2023-09-19T01:26:07;1.45;;;0.80;;
24557;SDS011;12726;49.148;8.582;2023-09-19T01:29:10;2.53;;;0.80;;
24557;SDS011;12726;49.148;8.582;2023-09-19T01:32:05;2.40;;;0.88;;
24557;SDS011;12726;49.148;8.582;2023-09-19T01:34:52;3.35;;;0.80;;
24557;SDS011;12726;49.148;8.582;2023-09-19T01:37:40;6.45;;;0.80;;
24557;SDS011;12726;49.148;8.582;2023-09-19T01:40:27;3.38;;;0.77;;
24557;SDS011;12726;49.148;8.582;2023-09-19T01:43:15;3.28;;;0.70;;
24557;SDS011;12726;49.148;8.582;2023-09-19T01:46:07;4.03;;;0.90;;
24557;SDS011;12726;49.148;8.582;2023-09-19T01:49:01;1.40;;;0.70;;
24557;SDS011;12726;49.148;8.582;2023-09-19T01:51:59;2.85;;;1.10;;
24557;SDS011;12726;49.148;8.582;2023-09-19T01:57:37;2.95;;;0.65;;
24557;SDS011;12726;49.148;8.582;2023-09-19T02:00:32;4.13;;;0.70;;
24557;SDS011;12726;49.148;8.582;2023-09-19T02:03:21;1.40;;;0.65;;
24557;SDS011;12726;49.148;8.582;2023-09-19T02:06:08;0.95;;;0.70;;
24557;SDS011;12726;49.148;8.582;2023-09-19T02:08:59;1.83;;;0.70;;
24557;SDS011;12726;49.148;8.582;2023-09-19T02:11:46;2.03;;;0.70;;
24557;SDS011;12726;49.148;8.582;2023-09-19T02:14:31;2.47;;;1.23;;
24557;SDS011;12726;49.148;8.582;2023-09-19T02:17:17;2.30;;;0.70;;
24557;SDS011;12726;49.148;8.582;2023-09-19T02:20:03;1.77;;;0.80;;
24557;SDS011;12726;49.148;8.582;2023-09-19T02:22:56;2.20;;;0.93;;
24557;SDS011;12726;49.148;8.582;2023-09-19T02:25:41;1.42;;;0.85;;
24557;SDS011;12726;49.148;8.582;2023-09-19T02:28:27;3.10;;;0.93;;
24557;SDS011;12726;49.148;8.582;2023-09-19T02:31:13;4.35;;;0.60;;
24557;SDS011;12726;49.148;8.582;2023-09-19T02:34:00;1.90;;;0.90;;
24557;SDS011;12726;49.148;8.582;2023-09-19T02:36:45;2.75;;;1.40;;
24557;SDS011;12726;49.148;8.582;2023-09-19T02:39:33;1.20;;;0.52;;
24557;SDS011;12726;49.148;8.582;2023-09-19T02:42:18;2.42;;;0.88;;
24557;SDS011;12726;49.148;8.582;2023-09-19T02:45:03;4.35;;;1.10;;
24557;SDS011;12726;49.148;8.582;2023-09-19T02:47:49;3.35;;;0.70;;
24557;SDS011;12726;49.148;8.582;2023-09-19T02:50:35;1.40;;;1.10;;
24557;SDS011;12726;49.148;8.582;2023-09-19T02:53:20;2.15;;;0.82;;
24557;SDS011;12726;49.148;8.582;2023-09-19T02:56:07;1.67;;;0.93;;
24557;SDS011;12726;49.148;8.582;2023-09-19T02:58:53;3.83;;;0.80;;
24557;SDS011;12726;49.148;8.582;2023-09-19T03:01:39;1.48;;;0.77;;
24557;SDS011;12726;49.148;8.582;2023-09-19T03:04:25;2.67;;;0.93;;
24557;SDS011;12726;49.148;8.582;2023-09-19T03:07:11;2.67;;;0.90;;
24557;SDS011;12726;49.148;8.582;2023-09-19T03:09:56;1.98;;;0.90;;
24557;SDS011;12726;49.148;8.582;2023-09-19T03:12:43;7.53;;;1.35;;
24557;SDS011;12726;49.148;8.582;2023-09-19T03:15:28;5.13;;;1.10;;
24557;SDS011;12726;49.148;8.582;2023-09-19T03:18:14;3.33;;;1.30;;
24557;SDS011;12726;49.148;8.582;2023-09-19T03:20:59;3.67;;;1.25;;
24557;SDS011;12726;49.148;8.582;2023-09-19T03:23:45;2.42;;;1.20;;
24557;SDS011;12726;49.148;8.582;2023-09-19T03:26:30;1.38;;;1.00;;
24557;SDS011;12726;49.148;8.582;2023-09-19T03:29:18;2.38;;;1.50;;
24557;SDS011;12726;49.148;8.582;2023-09-19T03:32:04;1.63;;;0.95;;
24557;SDS011;12726;49.148;8.582;2023-09-19T03:34:49;3.20;;;1.13;;
24557;SDS011;12726;49.148;8.582;2023-09-19T03:37:35;3.78;;;1.27;;
24557;SDS011;12726;49.148;8.582;2023-09-19T03:40:20;3.78;;;1.30;;
24557;SDS011;12726;49.148;8.582;2023-09-19T03:43:07;5.40;;;1.55;;
24557;SDS011;12726;49.148;8.582;2023-09-19T03:45:53;2.17;;;1.25;;
24557;SDS011;12726;49.148;8.582;2023-09-19T03:48:39;2.88;;;1.10;;
24557;SDS011;12726;49.148;8.582;2023-09-19T03:51:24;6.70;;;1.17;;
24557;SDS011;12726;49.148;8.582;2023-09-19T03:54:10;4.15;;;1.40;;
24557;SDS011;12726;49.148;8.582;2023-09-19T03:56:55;3.75;;;1.38;;
24557;SDS011;12726;49.148;8.582;2023-09-19T03:59:40;2.33;;;1.00;;
24557;SDS011;12726;49.148;8.582;2023-09-19T04:02:28;5.80;;;1.48;;
24557;SDS011;12726;49.148;8.582;2023-09-19T04:05:16;2.53;;;1.20;;
24557;SDS011;12726;49.148;8.582;2023-09-19T04:08:02;5.53;;;1.83;;
24557;SDS011;12726;49.148;8.582;2023-09-19T04:10:48;1.75;;;1.10;;
24557;SDS011;12726;49.148;8.582;2023-09-19T04:13:33;3.80;;;1.30;;
24557;SDS011;12726;49.148;8.582;2023-09-19T04:16:19;2.92;;;1.15;;
24557;SDS011;12726;49.148;8.582;2023-09-19T04:19:05;2.95;;;1.20;;
24557;SDS011;12726;49.148;8.582;2023-09-19T04:21:51;2.67;;;1.60;;
24557;SDS011;12726;49.148;8.582;2023-09-19T04:24:36;3.70;;;1.65;;
24557;SDS011;12726;49.148;8.582;2023-09-19T04:27:21;2.33;;;1.33;;
24557;SDS011;12726;49.148;8.582;2023-09-19T04:30:07;4.82;;;1.50;;
24557;SDS011;12726;49.148;8.582;2023-09-19T04:32:55;2.72;;;1.30;;
24557;SDS011;12726;49.148;8.582;2023-09-19T04:35:42;3.17;;;1.30;;
24557;SDS011;12726;49.148;8.582;2023-09-19T04:38:27;4.63;;;1.30;;
24557;SDS011;12726;49.148;8.582;2023-09-19T04:41:13;2.95;;;1.38;;
24557;SDS011;12726;49.148;8.582;2023-09-19T04:43:58;1.98;;;1.55;;
24557;SDS011;12726;49.148;8.582;2023-09-19T04:46:43;3.42;;;1.80;;
24557;SDS011;12726;49.148;8.582;2023-09-19T04:49:29;2.53;;;1.55;;
24557;SDS011;12726;49.148;8.582;2023-09-19T04:52:16;2.15;;;1.60;;
24557;SDS011;12726;49.148;8.582;2023-09-19T04:55:02;4.75;;;1.98;;
24557;SDS011;12726;49.148;8.582;2023-09-19T04:57:49;3.33;;;1.80;;
24557;SDS011;12726;49.148;8.582;2023-09-19T05:00:36;3.88;;;1.95;;
24557;SDS011;12726;49.148;8.582;2023-09-19T05:03:22;7.47;;;2.03;;
24557;SDS011;12726;49.148;8.582;2023-09-19T05:06:07;3.72;;;1.92;;
24557;SDS011;12726;49.148;8.582;2023-09-19T05:08:55;3.15;;;1.92;;
24557;SDS011;12726;49.148;8.582;2023-09-19T05:11:40;3.80;;;2.00;;
24557;SDS011;12726;49.148;8.582;2023-09-19T05:14:26;2.83;;;1.60;;
24557;SDS011;12726;49.148;8.582;2023-09-19T05:17:11;5.00;;;1.90;;
24557;SDS011;12726;49.148;8.582;2023-09-19T05:19:56;5.70;;;2.33;;
24557;SDS011;12726;49.148;8.582;2023-09-19T05:22:42;4.80;;;1.90;;
24557;SDS011;12726;49.148;8.582;2023-09-19T05:25:31;3.80;;;2.20;;
24557;SDS011;12726;49.148;8.582;2023-09-19T05:28:20;4.68;;;2.05;;
24557;SDS011;12726;49.148;8.582;2023-09-19T05:31:06;4.63;;;2.05;;
24557;SDS011;12726;49.148;8.582;2023-09-19T05:33:51;9.60;;;1.73;;
24557;SDS011;12726;49.148;8.582;2023-09-19T05:36:38;4.13;;;2.00;;
24557;SDS011;12726;49.148;8.582;2023-09-19T05:39:23;2.75;;;1.83;;
24557;SDS011;12726;49.148;8.582;2023-09-19T05:42:10;9.07;;;2.10;;
24557;SDS011;12726;49.148;8.582;2023-09-19T05:44:55;2.47;;;1.55;;
24557;SDS011;12726;49.148;8.582;2023-09-19T05:47:40;5.25;;;2.05;;
24557;SDS011;12726;49.148;8.582;2023-09-19T05:50:29;6.32;;;2.28;;
24557;SDS011;12726;49.148;8.582;2023-09-19T05:53:16;4.85;;;2.10;;
24557;SDS011;12726;49.148;8.582;2023-09-19T05:56:02;3.58;;;2.30;;
24557;SDS011;12726;49.148;8.582;2023-09-19T05:58:49;6.70;;;2.50;;
24557;SDS011;12726;49.148;8.582;2023-09-19T06:01:35;4.88;;;2.60;;
24557;SDS011;12726;49.148;8.582;2023-09-19T06:04:22;3.25;;;2.00;;
24557;SDS011;12726;49.148;8.582;2023-09-19T06:07:10;5.00;;;1.70;;
24557;SDS011;12726;49.148;8.582;2023-09-19T06:09:56;4.38;;;1.55;;
24557;SDS011;12726;49.148;8.582;2023-09-19T06:12:42;6.95;;;1.98;;
24557;SDS011;12726;49.148;8.582;2023-09-19T06:15:29;8.10;;;2.38;;
24557;SDS011;12726;49.148;8.582;2023-09-19T06:18:16;5.38;;;2.25;;
24557;SDS011;12726;49.148;8.582;2023-09-19T06:21:03;6.53;;;2.80;;
24557;SDS011;12726;49.148;8.582;2023-09-19T06:23:51;8.25;;;2.50;;
24557;SDS011;12726;49.148;8.582;2023-09-19T06:26:36;4.50;;;2.00;;
24557;SDS011;12726;49.148;8.582;2023-09-19T06:29:22;4.85;;;1.45;;
24557;SDS011;12726;49.148;8.582;2023-09-19T06:32:08;4.10;;;1.77;;
24557;SDS011;12726;49.148;8.582;2023-09-19T06:34:54;3.45;;;1.77;;
24557;SDS011;12726;49.148;8.582;2023-09-19T06:37:40;6.22;;;1.63;;
24557;SDS011;12726;49.148;8.582;2023-09-19T06:40:26;10.18;;;1.73;;
24557;SDS011;12726;49.148;8.582;2023-09-19T06:43:11;6.00;;;1.70;;
24557;SDS011;12726;49.148;8.582;2023-09-19T06:45:57;5.13;;;1.55;;
24557;SDS011;12726;49.148;8.582;2023-09-19T06:48:45;6.22;;;1.52;;
24557;SDS011;12726;49.148;8.582;2023-09-19T06:51:31;6.45;;;1.80;;
24557;SDS011;12726;49.148;8.582;2023-09-19T06:54:16;3.67;;;1.77;;
24557;SDS011;12726;49.148;8.582;2023-09-19T06:57:02;4.32;;;1.30;;
24557;SDS011;12726;49.148;8.582;2023-09-19T06:59:48;4.97;;;1.45;;
24557;SDS011;12726;49.148;8.582;2023-09-19T07:02:33;3.10;;;1.27;;
24557;SDS011;12726;49.148;8.582;2023-09-19T07:05:20;3.05;;;1.40;;
24557;SDS011;12726;49.148;8.582;2023-09-19T07:08:06;5.22;;;1.45;;
24557;SDS011;12726;49.148;8.582;2023-09-19T07:10:53;3.55;;;1.25;;
24557;SDS011;12726;49.148;8.582;2023-09-19T07:13:39;2.40;;;1.35;;
24557;SDS011;12726;49.148;8.582;2023-09-19T07:16:24;5.55;;;1.90;;
24557;SDS011;12726;49.148;8.582;2023-09-19T07:19:13;4.18;;;1.35;;
24557;SDS011;12726;49.148;8.582;2023-09-19T07:22:00;4.28;;;1.20;;
24557;SDS011;12726;49.148;8.582;2023-09-19T07:24:46;8.98;;;1.20;;
24557;SDS011;12726;49.148;8.582;2023-09-19T07:27:32;3.63;;;0.90;;
24557;SDS011;12726;49.148;8.582;2023-09-19T07:30:18;4.07;;;1.27;;
24557;SDS011;12726;49.148;8.582;2023-09-19T07:33:03;2.05;;;1.10;;
24557;SDS011;12726;49.148;8.582;2023-09-19T07:35:49;2.78;;;0.95;;
24557;SDS011;12726;49.148;8.582;2023-09-19T07:38:35;1.33;;;0.75;;
24557;SDS011;12726;49.148;8.582;2023-09-19T07:41:21;3.58;;;0.88;;
24557;SDS011;12726;49.148;8.582;2023-09-19T07:44:06;4.18;;;1.35;;
24557;SDS011;12726;49.148;8.582;2023-09-19T07:46:52;4.28;;;1.30;;
24557;SDS011;12726;49.148;8.582;2023-09-19T07:49:38;4.25;;;1.08;;
24557;SDS011;12726;49.148;8.582;2023-09-19T07:52:23;1.50;;;0.98;;
24557;SDS011;12726;49.148;8.582;2023-09-19T07:55:10;3.20;;;0.90;;
24557;SDS011;12726;49.148;8.582;2023-09-19T07:58:01;3.75;;;1.20;;
24557;SDS011;12726;49.148;8.582;2023-09-19T08:00:48;2.70;;;1.23;;
24557;SDS011;12726;49.148;8.582;2023-09-19T08:03:34;2.80;;;1.00;;
24557;SDS011;12726;49.148;8.582;2023-09-19T08:06:23;4.88;;;1.10;;
24557;SDS011;12726;49.148;8.582;2023-09-19T08:09:13;2.13;;;1.10;;
24557;SDS011;12726;49.148;8.582;2023-09-19T08:12:05;4.03;;;1.08;;
24557;SDS011;12726;49.148;8.582;2023-09-19T08:14:54;3.50;;;0.82;;
24557;SDS011;12726;49.148;8.582;2023-09-19T08:17:40;6.65;;;1.30;;
24557;SDS011;12726;49.148;8.582;2023-09-19T08:20:25;2.65;;;1.10;;
24557;SDS011;12726;49.148;8.582;2023-09-19T08:23:11;1.92;;;0.70;;
24557;SDS011;12726;49.148;8.582;2023-09-19T08:25:56;4.18;;;1.27;;
24557;SDS011;12726;49.148;8.582;2023-09-19T08:28:51;9.02;;;0.98;;
24557;SDS011;12726;49.148;8.582;2023-09-19T08:31:37;4.57;;;1.23;;
24557;SDS011;12726;49.148;8.582;2023-09-19T08:34:22;3.50;;;1.20;;
24557;SDS011;12726;49.148;8.582;2023-09-19T08:37:08;3.55;;;1.20;;
24557;SDS011;12726;49.148;8.582;2023-09-19T08:39:54;2.92;;;1.02;;
24557;SDS011;12726;49.148;8.582;2023-09-19T08:42:48;4.05;;;1.40;;
24557;SDS011;12726;49.148;8.582;2023-09-19T08:45:36;2.50;;;0.93;;
24557;SDS011;12726;49.148;8.582;2023-09-19T08:48:22;2.45;;;0.82;;
24557;SDS011;12726;49.148;8.582;2023-09-19T08:51:10;3.38;;;1.10;;
24557;SDS011;12726;49.148;8.582;2023-09-19T08:54:03;3.15;;;1.10;;
24557;SDS011;12726;49.148;8.582;2023-09-19T08:56:51;3.67;;;1.00;;
24557;SDS011;12726;49.148;8.582;2023-09-19T08:59:39;4.65;;;1.48;;
24557;SDS011;12726;49.148;8.582;2023-09-19T09:02:28;2.45;;;1.10;;
24557;SDS011;12726;49.148;8.582;2023-09-19T09:05:17;3.67;;;1.52;;
24557;SDS011;12726;49.148;8.582;2023-09-19T09:08:06;2.63;;;1.02;;
24557;SDS011;12726;49.148;8.582;2023-09-19T09:10:52;3.35;;;1.00;;
24557;SDS011;12726;49.148;8.582;2023-09-19T09:13:37;3.42;;;0.98;;
24557;SDS011;12726;49.148;8.582;2023-09-19T09:16:25;4.95;;;1.10;;
24557;SDS011;12726;49.148;8.582;2023-09-19T09:19:12;3.17;;;0.90;;
24557;SDS011;12726;49.148;8.582;2023-09-19T09:22:05;3.58;;;0.90;;
24557;SDS011;12726;49.148;8.582;2023-09-19T09:24:51;2.05;;;0.90;;
24557;SDS011;12726;49.148;8.582;2023-09-19T09:27:38;3.35;;;1.25;;
24557;SDS011;12726;49.148;8.582;2023-09-19T09:30:32;2.67;;;0.80;;
24557;SDS011;12726;49.148;8.582;2023-09-19T09:33:18;3.38;;;1.20;;
24557;SDS011;12726;49.148;8.582;2023-09-19T09:36:06;3.72;;;0.80;;
24557;SDS011;12726;49.148;8.582;2023-09-19T09:38:53;3.92;;;0.95;;
24557;SDS011;12726;49.148;8.582;2023-09-19T09:41:39;3.05;;;0.80;;
24557;SDS011;12726;49.148;8.582;2023-09-19T09:44:24;1.98;;;0.70;;
24557;SDS011;12726;49.148;8.582;2023-09-19T09:47:11;4.43;;;1.10;;
24557;SDS011;12726;49.148;8.582;2023-09-19T09:50:14;1.13;;;0.80;;
24557;SDS011;12726;49.148;8.582;2023-09-19T09:53:23;3.13;;;0.95;;
24557;SDS011;12726;49.148;8.582;2023-09-19T09:56:11;3.20;;;1.05;;
24557;SDS011;12726;49.148;8.582;2023-09-19T09:58:58;4.60;;;1.13;;
24557;SDS011;12726;49.148;8.582;2023-09-19T10:01:46;2.60;;;1.20;;
24557;SDS011;12726;49.148;8.582;2023-09-19T10:04:32;2.63;;;0.98;;
24557;SDS011;12726;49.148;8.582;2023-09-19T10:07:24;5.55;;;0.95;;
24557;SDS011;12726;49.148;8.582;2023-09-19T10:10:29;2.80;;;0.88;;
24557;SDS011;12726;49.148;8.582;2023-09-19T10:13:22;2.20;;;0.88;;
24557;SDS011;12726;49.148;8.582;2023-09-19T10:16:11;3.08;;;1.23;;
24557;SDS011;12726;49.148;8.582;2023-09-19T10:18:58;3.17;;;1.38;;
24557;SDS011;12726;49.148;8.582;2023-09-19T10:21:47;2.17;;;0.80;;
24557;SDS011;12726;49.148;8.582;2023-09-19T10:24:34;2.42;;;0.80;;
24557;SDS011;12726;49.148;8.582;2023-09-19T10:27:23;2.00;;;1.00;;
24557;SDS011;12726;49.148;8.582;2023-09-19T10:30:12;2.42;;;0.90;;
24557;SDS011;12726;49.148;8.582;2023-09-19T10:33:00;1.75;;;0.70;;
24557;SDS011;12726;49.148;8.582;2023-09-19T10:35:47;2.72;;;0.70;;
24557;SDS011;12726;49.148;8.582;2023-09-19T10:38:35;3.78;;;1.17;;
24557;SDS011;12726;49.148;8.582;2023-09-19T10:41:24;4.68;;;0.95;;
24557;SDS011;12726;49.148;8.582;2023-09-19T10:44:11;2.90;;;1.02;;
24557;SDS011;12726;49.148;8.582;2023-09-19T10:46:58;6.97;;;1.40;;
24557;SDS011;12726;49.148;8.582;2023-09-19T10:49:44;5.75;;;1.20;;
24557;SDS011;12726;49.148;8.582;2023-09-19T10:52:31;2.72;;;1.05;;
24557;SDS011;12726;49.148;8.582;2023-09-19T10:55:18;3.33;;;0.90;;
24557;SDS011;12726;49.148;8.582;2023-09-19T10:58:06;4.32;;;0.95;;
24557;SDS011;12726;49.148;8.582;2023-09-19T11:01:00;2.30;;;1.00;;
24557;SDS011;12726;49.148;8.582;2023-09-19T11:07:09;1.88;;;0.90;;
24557;SDS011;12726;49.148;8.582;2023-09-19T11:09:55;4.80;;;1.25;;
24557;SDS011;12726;49.148;8.582;2023-09-19T11:12:48;3.13;;;1.05;;
24557;SDS011;12726;49.148;8.582;2023-09-19T11:19:00;2.80;;;1.13;;
24557;SDS011;12726;49.148;8.582;2023-09-19T11:21:54;3.60;;;1.20;;
24557;SDS011;12726;49.148;8.582;2023-09-19T11:24:42;2.05;;;0.85;;
24557;SDS011;12726;49.148;8.582;2023-09-19T11:27:27;7.55;;;1.05;;
24557;SDS011;12726;49.148;8.582;2023-09-19T11:30:25;5.30;;;0.90;;
24557;SDS011;12726;49.148;8.582;2023-09-19T11:33:17;3.67;;;0.95;;
24557;SDS011;12726;49.148;8.582;2023-09-19T11:38:59;1.98;;;0.90;;
24557;SDS011;12726;49.148;8.582;2023-09-19T11:41:52;1.80;;;0.80;;
24557;SDS011;12726;49.148;8.582;2023-09-19T11:44:40;5.10;;;1.20;;
24557;SDS011;12726;49.148;8.582;2023-09-19T11:47:26;3.33;;;1.00;;
24557;SDS011;12726;49.148;8.582;2023-09-19T11:50:12;3.80;;;1.00;;
24557;SDS011;12726;49.148;8.582;2023-09-19T11:53:05;2.40;;;0.97;;
24557;SDS011;12726;49.148;8.582;2023-09-19T11:55:51;5.80;;;0.88;;
24557;SDS011;12726;49.148;8.582;2023-09-19T11:58:37;4.07;;;1.13;;
24557;SDS011;12726;49.148;8.582;2023-09-19T12:01:24;2.47;;;1.00;;
24557;SDS011;12726;49.148;8.582;2023-09-19T12:04:12;2.20;;;1.20;;
24557;SDS011;12726;49.148;8.582;2023-09-19T12:06:58;3.08;;;1.05;;
24557;SDS011;12726;49.148;8.582;2023-09-19T12:09:46;2.67;;;1.17;;
24557;SDS011;12726;49.148;8.582;2023-09-19T12:12:33;6.88;;;1.10;;
24557;SDS011;12726;49.148;8.582;2023-09-19T12:15:22;4.22;;;1.20;;
24557;SDS011;12726;49.148;8.582;2023-09-19T12:18:25;1.73;;;1.02;;
24557;SDS011;12726;49.148;8.582;2023-09-19T12:21:21;5.20;;;1.10;;
24557;SDS011;12726;49.148;8.582;2023-09-19T12:24:07;2.13;;;0.90;;
24557;SDS011;12726;49.148;8.582;2023-09-19T12:27:03;2.22;;;0.90;;
24557;SDS011;12726;49.148;8.582;2023-09-19T12:29:50;2.88;;;1.08;;
24557;SDS011;12726;49.148;8.582;2023-09-19T12:32:39;2.78;;;0.90;;
24557;SDS011;12726;49.148;8.582;2023-09-19T12:35:27;3.58;;;1.05;;
24557;SDS011;12726;49.148;8.582;2023-09-19T12:38:22;3.13;;;1.00;;
24557;SDS011;12726;49.148;8.582;2023-09-19T12:41:08;1.67;;;0.90;;
24557;SDS011;12726;49.148;8.582;2023-09-19T12:43:55;3.40;;;0.95;;
24557;SDS011;12726;49.148;8.582;2023-09-19T12:46:42;5.72;;;0.90;;
24557;SDS011;12726;49.148;8.582;2023-09-19T12:49:27;1.05;;;0.70;;
24557;SDS011;12726;49.148;8.582;2023-09-19T12:52:12;3.95;;;0.93;;
24557;SDS011;12726;49.148;8.582;2023-09-19T12:54:57;3.35;;;0.85;;
24557;SDS011;12726;49.148;8.582;2023-09-19T12:57:54;3.70;;;1.27;;
24557;SDS011;12726;49.148;8.582;2023-09-19T13:00:43;5.35;;;1.38;;
24557;SDS011;12726;49.148;8.582;2023-09-19T13:03:29;2.75;;;1.15;;
24557;SDS011;12726;49.148;8.582;2023-09-19T13:06:34;1.77;;;0.77;;
24557;SDS011;12726;49.148;8.582;2023-09-19T13:09:22;1.92;;;0.90;;
24557;SDS011;12726;49.148;8.582;2023-09-19T13:12:36;3.07;;;0.90;;
24557;SDS011;12726;49.148;8.582;2023-09-19T13:15:22;2.38;;;0.80;;
24557;SDS011;12726;49.148;8.582;2023-09-19T13:18:12;2.55;;;0.85;;
24557;SDS011;12726;49.148;8.582;2023-09-19T13:21:07;1.40;;;0.68;;
24557;SDS011;12726;49.148;8.582;2023-09-19T13:23:54;2.53;;;0.70;;
24557;SDS011;12726;49.148;8.582;2023-09-19T13:26:42;2.25;;;1.00;;
24557;SDS011;12726;49.148;8.582;2023-09-19T13:29:28;3.83;;;1.05;;
24557;SDS011;12726;49.148;8.582;2023-09-19T13:32:13;2.78;;;1.00;;
24557;SDS011;12726;49.148;8.582;2023-09-19T13:35:00;3.28;;;0.70;;
24557;SDS011;12726;49.148;8.582;2023-09-19T13:37:46;2.13;;;0.85;;
24557;SDS011;12726;49.148;8.582;2023-09-19T13:40:35;3.08;;;0.75;;
24557;SDS011;12726;49.148;8.582;2023-09-19T13:43:20;3.55;;;0.80;;
24557;SDS011;12726;49.148;8.582;2023-09-19T13:46:06;2.38;;;0.80;;
24557;SDS011;12726;49.148;8.582;2023-09-19T13:48:56;1.90;;;0.80;;
24557;SDS011;12726;49.148;8.582;2023-09-19T13:51:44;2.08;;;0.68;;
24557;SDS011;12726;49.148;8.582;2023-09-19T13:54:29;3.78;;;1.00;;
24557;SDS011;12726;49.148;8.582;2023-09-19T13:57:14;2.80;;;0.90;;
24557;SDS011;12726;49.148;8.582;2023-09-19T14:00:00;2.97;;;1.00;;
24557;SDS011;12726;49.148;8.582;2023-09-19T14:02:46;2.25;;;0.70;;
24557;SDS011;12726;49.148;8.582;2023-09-19T14:05:32;1.70;;;0.80;;
24557;SDS011;12726;49.148;8.582;2023-09-19T14:08:19;2.70;;;1.15;;
24557;SDS011;12726;49.148;8.582;2023-09-19T14:11:06;2.30;;;0.82;;
24557;SDS011;12726;49.148;8.582;2023-09-19T14:13:51;1.88;;;1.15;;
24557;SDS011;12726;49.148;8.582;2023-09-19T14:16:37;2.20;;;0.90;;
24557;SDS011;12726;49.148;8.582;2023-09-19T14:19:23;1.52;;;0.60;;
24557;SDS011;12726;49.148;8.582;2023-09-19T14:22:09;2.78;;;1.40;;
24557;SDS011;12726;49.148;8.582;2023-09-19T14:24:56;1.83;;;1.58;;
24557;SDS011;12726;49.148;8.582;2023-09-19T14:27:43;1.38;;;0.70;;
24557;SDS011;12726;49.148;8.582;2023-09-19T14:30:28;1.95;;;0.90;;
24557;SDS011;12726;49.148;8.582;2023-09-19T14:33:14;2.80;;;1.00;;
24557;SDS011;12726;49.148;8.582;2023-09-19T14:36:02;1.73;;;0.88;;
24557;SDS011;12726;49.148;8.582;2023-09-19T14:38:52;1.33;;;0.85;;
24557;SDS011;12726;49.148;8.582;2023-09-19T14:41:40;1.98;;;0.90;;
24557;SDS011;12726;49.148;8.582;2023-09-19T14:44:26;3.30;;;1.00;;
24557;SDS011;12726;49.148;8.582;2023-09-19T14:47:11;2.40;;;0.82;;
24557;SDS011;12726;49.148;8.582;2023-09-19T14:49:57;3.10;;;1.00;;
24557;SDS011;12726;49.148;8.582;2023-09-19T14:52:43;1.80;;;0.80;;
24557;SDS011;12726;49.148;8.582;2023-09-19T14:55:29;1.52;;;0.75;;
24557;SDS011;12726;49.148;8.582;2023-09-19T14:58:19;2.55;;;0.80;;
24557;SDS011;12726;49.148;8.582;2023-09-19T15:01:05;2.55;;;0.90;;
24557;SDS011;12726;49.148;8.582;2023-09-19T15:03:51;2.55;;;1.02;;
24557;SDS011;12726;49.148;8.582;2023-09-19T15:06:37;1.45;;;0.70;;
24557;SDS011;12726;49.148;8.582;2023-09-19T15:09:23;2.42;;;0.90;;
24557;SDS011;12726;49.148;8.582;2023-09-19T15:12:09;2.28;;;0.98;;
24557;SDS011;12726;49.148;8.582;2023-09-19T15:14:59;0.82;;;0.70;;
24557;SDS011;12726;49.148;8.582;2023-09-19T15:17:44;4.28;;;1.00;;
24557;SDS011;12726;49.148;8.582;2023-09-19T15:20:30;2.22;;;0.98;;
24557;SDS011;12726;49.148;8.582;2023-09-19T15:23:16;2.03;;;0.70;;
24557;SDS011;12726;49.148;8.582;2023-09-19T15:26:02;1.10;;;0.70;;
24557;SDS011;12726;49.148;8.582;2023-09-19T15:28:48;2.95;;;0.70;;
24557;SDS011;12726;49.148;8.582;2023-09-19T15:31:35;2.25;;;0.80;;
24557;SDS011;12726;49.148;8.582;2023-09-19T15:34:21;2.70;;;0.75;;
24557;SDS011;12726;49.148;8.582;2023-09-19T15:37:07;3.45;;;0.90;;
24557;SDS011;12726;49.148;8.582;2023-09-19T15:39:52;2.00;;;1.33;;
24557;SDS011;12726;49.148;8.582;2023-09-19T15:42:37;1.55;;;0.90;;
24557;SDS011;12726;49.148;8.582;2023-09-19T15:45:23;1.25;;;0.52;;
24557;SDS011;12726;49.148;8.582;2023-09-19T15:48:11;1.85;;;0.70;;
24557;SDS011;12726;49.148;8.582;2023-09-19T15:51:02;3.97;;;0.80;;
24557;SDS011;12726;49.148;8.582;2023-09-19T15:53:48;2.42;;;1.00;;
24557;SDS011;12726;49.148;8.582;2023-09-19T15:56:35;1.77;;;0.80;;
24557;SDS011;12726;49.148;8.582;2023-09-19T15:59:20;4.50;;;0.73;;
24557;SDS011;12726;49.148;8.582;2023-09-19T16:02:05;1.30;;;0.88;;
24557;SDS011;12726;49.148;8.582;2023-09-19T16:04:52;1.38;;;0.70;;
24557;SDS011;12726;49.148;8.582;2023-09-19T16:07:39;1.65;;;0.73;;
24557;SDS011;12726;49.148;8.582;2023-09-19T16:10:25;4.43;;;0.70;;
24557;SDS011;12726;49.148;8.582;2023-09-19T16:13:10;1.52;;;0.90;;
24557;SDS011;12726;49.148;8.582;2023-09-19T16:15:57;2.17;;;0.60;;
24557;SDS011;12726;49.148;8.582;2023-09-19T16:18:44;2.17;;;0.73;;
24557;SDS011;12726;49.148;8.582;2023-09-19T16:21:33;2.10;;;0.57;;
24557;SDS011;12726;49.148;8.582;2023-09-19T16:24:19;1.13;;;0.80;;
24557;SDS011;12726;49.148;8.582;2023-09-19T16:27:04;4.45;;;0.70;;
24557;SDS011;12726;49.148;8.582;2023-09-19T16:29:50;3.03;;;0.80;;
24557;SDS011;12726;49.148;8.582;2023-09-19T16:32:35;1.60;;;0.75;;
24557;SDS011;12726;49.148;8.582;2023-09-19T16:35:21;0.85;;;0.50;;
24557;SDS011;12726;49.148;8.582;2023-09-19T16:38:07;2.30;;;0.70;;
24557;SDS011;12726;49.148;8.582;2023-09-19T16:40:53;2.25;;;0.70;;
24557;SDS011;12726;49.148;8.582;2023-09-19T16:43:39;1.63;;;0.80;;
24557;SDS011;12726;49.148;8.582;2023-09-19T16:46:25;2.92;;;1.23;;
24557;SDS011;12726;49.148;8.582;2023-09-19T16:49:11;1.83;;;0.70;;
24557;SDS011;12726;49.148;8.582;2023-09-19T16:51:56;1.40;;;0.68;;
24557;SDS011;12726;49.148;8.582;2023-09-19T16:54:42;2.50;;;0.70;;
24557;SDS011;12726;49.148;8.582;2023-09-19T16:57:28;0.77;;;0.63;;
24557;SDS011;12726;49.148;8.582;2023-09-19T17:00:13;1.33;;;1.00;;
24557;SDS011;12726;49.148;8.582;2023-09-19T17:03:01;1.90;;;0.63;;
24557;SDS011;12726;49.148;8.582;2023-09-19T17:05:47;1.55;;;0.90;;